Penhook, Virginia
Current Conditions -  °F | °C
As of 11:54 PM on Friday 19 Dec 2014 (Local Time) from KROA Reporting Station
Clear Clear  
Wind Chill: 25°   Ceiling: Unl
Heat Index: 33°   Visibility: 10mi
Dew Point: 22°   Wind: 10mph
Humidity: 64%   Direction: 30°NNE
Pressure: 30.22"   Gusts: NA
Location:  36.98°N, 79.63°W
Report Text: KROA 200454Z 03009KT 10SM CLR 01/M06 A3022 RMK AO2 SLP241 T00061056 400831006
Loading
Personal Weather Stations






























Interactive Weather Map New forecast layout! Learn more

10-Day Weather Forecast

Advertisements
Track Severe Weather on mobile